Oxford, Michigan
Current Conditions -  °F | °C
As of 12:53 PM on Friday 24 Oct 2014 (Local Time) from KPTK Reporting Station
Overcast Overcast  
Wind Chill: 55°   Ceiling: 3700
Heat Index: 55°   Visibility: 10mi
Dew Point: 43°   Wind: 7mph
Humidity: 64%   Direction: 220°SW
Pressure: 30.04"   Gusts: NA
Location:  42.82°N, 83.25°W
Report Text: KPTK 241653Z 22006KT 10SM BKN037 OVC050 13/06 A3004 RMK AO2 SLP177 T01280061
Loading
Personal Weather Stations






























Interactive Weather Map
Tropical Storm Tracking
New forecast layout! Learn more

10-Day Weather Forecast

Advertisements
Track Severe Weather on mobile